createdAt,value
2022-10-23T00:00:28.281Z,93.86
2022-10-23T00:01:28.271Z,93.86
2022-10-23T00:02:28.388Z,93.86
2022-10-23T00:03:28.211Z,93.86
2022-10-23T00:04:28.190Z,93.76
2022-10-23T00:05:28.182Z,93.76
2022-10-23T00:06:28.181Z,93.76
2022-10-23T00:07:28.152Z,93.76
2022-10-23T00:08:28.142Z,93.76
2022-10-23T00:09:28.122Z,93.76
2022-10-23T00:10:28.103Z,93.86
2022-10-23T00:11:28.113Z,93.86
2022-10-23T00:12:28.084Z,93.86
2022-10-23T00:13:28.073Z,93.86
2022-10-23T00:14:28.055Z,93.86
2022-10-23T00:15:28.044Z,93.76
2022-10-23T00:16:28.052Z,93.76
2022-10-23T00:17:28.013Z,93.76
2022-10-23T00:18:28.003Z,93.76
2022-10-23T00:19:27.992Z,93.76
2022-10-23T00:20:27.974Z,93.76
2022-10-23T00:21:27.983Z,93.76
2022-10-23T00:22:27.954Z,93.86
2022-10-23T00:23:27.946Z,93.86
2022-10-23T00:24:27.915Z,93.86
2022-10-23T00:25:27.905Z,93.86
2022-10-23T00:26:27.904Z,93.86
2022-10-23T00:27:27.883Z,93.86
2022-10-23T00:28:27.879Z,93.96
2022-10-23T00:29:27.855Z,93.96
2022-10-23T00:30:27.836Z,93.96
2022-10-23T00:31:27.836Z,93.96
2022-10-23T00:32:27.841Z,93.96
2022-10-23T00:33:27.797Z,94.06
2022-10-23T00:34:27.795Z,93.96
2022-10-23T00:35:27.769Z,94.06
2022-10-23T00:36:27.767Z,94.06
2022-10-23T00:37:27.748Z,94.17
2022-10-23T00:38:27.737Z,94.17
2022-10-23T00:39:27.717Z,94.17
2022-10-23T00:40:27.699Z,94.06
2022-10-23T00:41:27.707Z,94.06
2022-10-23T00:42:27.667Z,93.96
2022-10-23T00:43:27.658Z,94.06
2022-10-23T00:44:27.649Z,94.10
2022-10-23T00:45:27.641Z,94.06
2022-10-23T00:46:27.636Z,94.21
2022-10-23T00:47:27.609Z,94.21
2022-10-23T00:48:27.589Z,94.21
2022-10-23T00:49:27.580Z,94.17
2022-10-23T00:50:27.577Z,94.26
2022-10-23T00:51:27.561Z,94.21
2022-10-23T00:52:27.540Z,94.21
2022-10-23T00:53:27.530Z,94.17
2022-10-23T00:54:27.519Z,94.10
2022-10-23T00:55:27.520Z,94.06
2022-10-23T00:56:27.489Z,94.00
2022-10-23T00:58:27.465Z,94.06
2022-10-23T00:59:27.456Z,94.00
2022-10-23T01:00:27.455Z,94.10
2022-10-23T01:01:27.502Z,94.10
2022-10-23T01:02:27.444Z,94.10
2022-10-23T01:03:27.394Z,94.21
2022-10-23T01:04:27.371Z,94.21
2022-10-23T01:05:27.391Z,94.21
2022-10-23T01:06:27.341Z,94.10
2022-10-23T01:07:27.358Z,94.00
2022-10-23T01:08:27.314Z,94.00
2022-10-23T01:09:27.304Z,94.00
2022-10-23T01:10:27.312Z,94.00
2022-10-23T01:11:27.302Z,94.21
2022-10-23T01:12:27.263Z,94.41
2022-10-23T01:13:27.263Z,94.41
2022-10-23T01:14:27.233Z,94.41
2022-10-23T01:15:27.242Z,94.51
2022-10-23T01:16:27.226Z,94.51
2022-10-23T01:17:27.204Z,94.41
2022-10-23T01:18:27.183Z,94.41
2022-10-23T01:19:27.195Z,94.41
2022-10-23T01:20:27.199Z,94.41
2022-10-23T01:21:27.152Z,94.41
2022-10-23T01:22:27.127Z,94.41
2022-10-23T01:23:27.127Z,94.51
2022-10-23T01:24:27.104Z,94.51
2022-10-23T01:25:27.125Z,94.51
2022-10-23T01:26:27.075Z,94.41
2022-10-23T01:27:27.066Z,94.31
2022-10-23T01:28:27.050Z,94.31
2022-10-23T01:29:27.039Z,94.31
2022-10-23T01:30:27.035Z,94.31
2022-10-23T01:31:27.006Z,94.41
2022-10-23T01:32:26.986Z,94.31
2022-10-23T01:33:26.984Z,94.21
2022-10-23T01:34:26.970Z,94.21
2022-10-23T01:35:26.966Z,94.21
2022-10-23T01:36:26.936Z,94.21
2022-10-23T01:37:26.928Z,94.21
2022-10-23T01:38:26.907Z,94.10
2022-10-23T01:39:26.918Z,94.10
2022-10-23T01:40:26.900Z,94.10
2022-10-23T01:41:26.871Z,94.10
2022-10-23T01:42:26.857Z,94.10
2022-10-23T01:43:26.847Z,94.00
2022-10-23T01:44:26.828Z,94.00
2022-10-23T01:45:26.828Z,94.00
2022-10-23T01:46:26.799Z,94.00
2022-10-23T01:47:26.814Z,94.00
2022-10-23T01:48:26.786Z,94.00
2022-10-23T01:49:26.761Z,94.00
2022-10-23T01:50:26.767Z,94.00
2022-10-23T01:51:26.734Z,93.90
2022-10-23T01:52:26.719Z,94.00
2022-10-23T01:53:26.711Z,94.10
2022-10-23T01:54:26.690Z,94.10
2022-10-23T01:55:26.700Z,94.10
2022-10-23T01:56:26.661Z,94.10
2022-10-23T01:57:26.696Z,94.21
2022-10-23T01:58:26.639Z,94.21
2022-10-23T01:59:26.640Z,94.21
2022-10-23T02:00:26.621Z,94.21
2022-10-23T02:01:26.647Z,94.31
2022-10-23T02:02:26.643Z,94.31
2022-10-23T02:03:26.580Z,94.31
2022-10-23T02:04:26.551Z,94.31
2022-10-23T02:05:26.562Z,94.31
2022-10-23T02:06:26.521Z,94.31
2022-10-23T02:07:26.521Z,94.21
2022-10-23T02:08:26.492Z,94.21
2022-10-23T02:09:26.493Z,94.21
2022-10-23T02:10:26.500Z,94.31
2022-10-23T02:11:26.463Z,94.21
2022-10-23T02:13:26.443Z,94.21
2022-10-23T02:14:26.413Z,94.21
2022-10-23T02:15:26.423Z,94.31
2022-10-23T02:16:26.403Z,94.41
2022-10-23T02:17:26.382Z,94.31
2022-10-23T02:18:26.364Z,94.31
2022-10-23T02:19:26.361Z,94.41
2022-10-23T02:20:26.355Z,94.31
2022-10-23T02:21:26.325Z,94.31
2022-10-23T02:22:26.306Z,94.31
2022-10-23T02:23:26.304Z,94.31
2022-10-23T02:24:26.283Z,94.41
2022-10-23T02:25:26.293Z,94.41
2022-10-23T02:26:26.278Z,94.51
2022-10-23T02:27:26.246Z,94.41
2022-10-23T02:28:26.225Z,94.41
2022-10-23T02:29:26.242Z,94.41
2022-10-23T02:30:26.216Z,94.31
2022-10-23T02:31:26.194Z,94.31
2022-10-23T02:32:26.167Z,94.31
2022-10-23T02:33:26.163Z,94.41
2022-10-23T02:34:26.153Z,94.31
2022-10-23T02:35:26.149Z,94.31
2022-10-23T02:36:26.120Z,94.31
2022-10-23T02:37:26.109Z,94.21
2022-10-23T02:38:26.087Z,94.21
2022-10-23T02:39:26.078Z,94.10
2022-10-23T02:40:26.089Z,94.21
2022-10-23T02:41:26.047Z,94.10
2022-10-23T02:42:26.038Z,94.10
2022-10-23T02:43:26.036Z,94.00
2022-10-23T02:44:26.008Z,94.00
2022-10-23T02:45:26.019Z,94.00
2022-10-23T02:46:25.979Z,94.00
2022-10-23T02:47:25.971Z,94.00
2022-10-23T02:48:25.959Z,93.90
2022-10-23T02:49:25.958Z,93.90
2022-10-23T02:50:25.943Z,94.00
2022-10-23T02:51:25.919Z,94.00
2022-10-23T02:52:25.930Z,94.00
2022-10-23T02:53:25.901Z,94.10
2022-10-23T02:54:25.878Z,94.21
2022-10-23T02:55:25.900Z,94.21
2022-10-23T02:56:25.848Z,94.31
2022-10-23T02:57:25.831Z,94.31
2022-10-23T02:58:25.823Z,94.41
2022-10-23T02:59:25.811Z,94.51
2022-10-23T03:00:25.813Z,94.61
2022-10-23T03:01:25.955Z,94.61
2022-10-23T03:02:26.047Z,94.51
2022-10-23T03:03:25.760Z,94.51
2022-10-23T03:04:25.753Z,94.61
2022-10-23T03:05:25.754Z,94.61
2022-10-23T03:06:25.710Z,94.61
2022-10-23T03:07:25.702Z,94.51
2022-10-23T03:08:25.683Z,94.51
2022-10-23T03:09:25.676Z,94.51
2022-10-23T03:10:25.674Z,94.51
2022-10-23T03:11:25.652Z,94.51
2022-10-23T03:12:25.633Z,94.51
2022-10-23T03:13:25.624Z,94.51
2022-10-23T03:14:25.605Z,94.51
2022-10-23T03:15:25.604Z,94.51
2022-10-23T03:16:25.577Z,94.51
2022-10-23T03:17:25.564Z,94.51
2022-10-23T03:18:25.553Z,94.51
2022-10-23T03:19:25.543Z,94.61
2022-10-23T03:20:25.534Z,94.61
2022-10-23T03:21:25.512Z,94.61
2022-10-23T03:22:25.495Z,94.61
2022-10-23T03:23:25.487Z,94.51
2022-10-23T03:24:25.467Z,94.51
2022-10-23T03:25:25.478Z,94.51
2022-10-23T03:26:25.435Z,94.51
2022-10-23T03:27:25.495Z,94.51
2022-10-23T03:28:25.414Z,94.41
2022-10-23T03:29:25.406Z,94.31
2022-10-23T03:30:25.397Z,94.41
2022-10-23T03:31:25.375Z,94.31
2022-10-23T03:32:25.358Z,94.21
2022-10-23T03:33:25.348Z,94.21
2022-10-23T03:34:25.328Z,94.10
2022-10-23T03:35:25.336Z,94.10
2022-10-23T03:36:25.304Z,94.10
2022-10-23T03:37:25.305Z,94.10
2022-10-23T03:38:25.278Z,94.10
2022-10-23T03:39:25.269Z,94.21
2022-10-23T03:40:25.259Z,94.10
2022-10-23T03:41:25.247Z,94.21
2022-10-23T03:42:25.219Z,94.21
2022-10-23T03:43:25.208Z,94.21
2022-10-23T03:44:25.209Z,94.31
2022-10-23T03:45:25.199Z,94.31
2022-10-23T03:46:25.169Z,94.31
2022-10-23T03:47:25.160Z,94.21
2022-10-23T03:48:25.139Z,94.21
2022-10-23T03:49:25.147Z,94.31
2022-10-23T03:50:25.129Z,94.31
2022-10-23T03:51:25.100Z,94.31
2022-10-23T03:53:25.082Z,94.31
2022-10-23T03:54:25.071Z,94.31
2022-10-23T03:55:25.061Z,94.31
2022-10-23T03:56:25.028Z,94.41
2022-10-23T03:57:25.022Z,94.41
2022-10-23T03:58:25.001Z,94.41
2022-10-23T03:59:25.001Z,94.41
2022-10-23T04:00:25.003Z,94.41
2022-10-23T04:01:25.012Z,94.41
2022-10-23T04:02:25.032Z,94.41
2022-10-23T04:03:24.942Z,94.41
2022-10-23T04:04:24.912Z,94.41
2022-10-23T04:05:24.925Z,94.41
2022-10-23T04:06:24.892Z,94.41
2022-10-23T04:07:24.902Z,94.51
2022-10-23T04:08:24.873Z,94.51
2022-10-23T04:09:24.874Z,94.41
2022-10-23T04:10:24.863Z,94.41
2022-10-23T04:11:24.823Z,94.41
2022-10-23T04:12:24.814Z,94.31
2022-10-23T04:13:24.793Z,94.31
2022-10-23T04:14:24.801Z,94.21
2022-10-23T04:15:24.787Z,94.21
2022-10-23T04:16:24.764Z,94.21
2022-10-23T04:17:24.767Z,94.21
2022-10-23T04:18:24.735Z,94.31
2022-10-23T04:19:24.716Z,94.31
2022-10-23T04:20:24.728Z,94.31
2022-10-23T04:21:24.716Z,94.31
2022-10-23T04:22:27.501Z,94.31
2022-10-23T04:23:24.666Z,94.31
2022-10-23T04:24:24.657Z,94.41
2022-10-23T04:25:24.658Z,94.41
2022-10-23T04:26:24.626Z,94.51
2022-10-23T04:27:24.613Z,94.51
2022-10-23T04:28:24.626Z,94.61
2022-10-23T04:29:24.589Z,94.61
2022-10-23T04:30:24.590Z,94.51
2022-10-23T04:31:24.548Z,94.61
2022-10-23T04:32:24.587Z,94.51
2022-10-23T04:33:24.526Z,94.51
2022-10-23T04:34:24.526Z,94.51
2022-10-23T04:35:24.517Z,94.41
2022-10-23T04:36:24.498Z,94.41
2022-10-23T04:37:24.476Z,94.31
2022-10-23T04:38:24.466Z,94.21
2022-10-23T04:39:24.457Z,94.10
2022-10-23T04:40:24.448Z,94.10
2022-10-23T04:41:24.418Z,94.10
2022-10-23T04:42:24.459Z,94.10
2022-10-23T04:43:24.397Z,94.10
2022-10-23T04:44:24.379Z,94.00
2022-10-23T04:45:24.379Z,94.00
2022-10-23T04:46:24.350Z,94.00
2022-10-23T04:47:24.352Z,94.00
2022-10-23T04:48:26.929Z,94.00
2022-10-23T04:49:24.312Z,94.00
2022-10-23T04:50:24.320Z,94.10
2022-10-23T04:51:24.282Z,94.10
2022-10-23T04:52:24.281Z,94.10
2022-10-23T04:53:24.259Z,94.00
2022-10-23T04:54:24.241Z,94.00
2022-10-23T04:55:24.260Z,94.10
2022-10-23T04:56:24.221Z,94.10
2022-10-23T04:57:24.204Z,94.10
2022-10-23T04:58:24.192Z,94.10
2022-10-23T04:59:24.172Z,94.10
2022-10-23T05:00:24.191Z,94.10
2022-10-23T05:01:24.261Z,94.21
2022-10-23T05:02:24.132Z,94.31
2022-10-23T05:03:24.125Z,94.31
2022-10-23T05:04:24.113Z,94.41
2022-10-23T05:05:24.113Z,94.41
2022-10-23T05:06:24.085Z,94.41
2022-10-23T05:07:24.066Z,94.31
2022-10-23T05:08:24.068Z,94.41
2022-10-23T05:09:24.044Z,94.41
2022-10-23T05:10:24.045Z,94.41
2022-10-23T05:11:24.014Z,94.41
2022-10-23T05:12:24.005Z,94.51
2022-10-23T05:13:23.984Z,94.41
2022-10-23T05:14:23.973Z,94.51
2022-10-23T05:16:19.424Z,94.51
2022-10-23T05:17:19.385Z,94.41
2022-10-23T05:18:19.383Z,94.41
2022-10-23T05:19:21.985Z,94.51
2022-10-23T05:20:19.352Z,94.61
2022-10-23T05:21:19.355Z,94.61
2022-10-23T05:22:19.465Z,94.61
2022-10-23T05:23:19.305Z,94.71
2022-10-23T05:24:19.296Z,94.61
2022-10-23T05:25:19.281Z,94.51
2022-10-23T05:26:19.286Z,94.61
2022-10-23T05:27:19.254Z,94.61
2022-10-23T05:28:19.248Z,94.61
2022-10-23T05:29:19.226Z,94.61
2022-10-23T05:30:19.216Z,94.51
2022-10-23T05:31:19.239Z,94.51
2022-10-23T05:32:19.190Z,94.41
2022-10-23T05:33:19.177Z,94.41
2022-10-23T05:34:19.166Z,94.41
2022-10-23T05:35:19.147Z,94.41
2022-10-23T05:36:19.157Z,94.51
2022-10-23T05:37:19.117Z,94.61
2022-10-23T05:38:19.115Z,94.61
2022-10-23T05:39:19.098Z,94.71
2022-10-23T05:40:19.106Z,94.96
2022-10-23T05:41:19.073Z,95.17
2022-10-23T05:42:19.059Z,95.17
2022-10-23T05:43:19.038Z,95.17
2022-10-23T05:44:19.028Z,95.17
2022-10-23T05:45:19.021Z,95.17
2022-10-23T05:46:19.008Z,95.26
2022-10-23T05:47:18.990Z,95.17
2022-10-23T05:48:30.039Z,95.17
2022-10-23T05:49:19.961Z,95.17
2022-10-23T05:50:19.130Z,95.26
2022-10-23T05:51:18.930Z,95.26
2022-10-23T05:52:18.927Z,95.47
2022-10-23T05:53:18.900Z,95.47
2022-10-23T05:54:18.898Z,95.47
2022-10-23T05:55:18.881Z,95.47
2022-10-23T05:56:18.881Z,95.47
2022-10-23T05:57:18.860Z,95.47
2022-10-23T05:58:18.855Z,95.47
2022-10-23T05:59:21.988Z,95.37
2022-10-23T06:00:18.821Z,95.37
2022-10-23T06:01:18.873Z,95.37
2022-10-23T06:02:18.807Z,95.37
2022-10-23T06:03:18.772Z,95.37
2022-10-23T06:04:18.763Z,95.26
2022-10-23T06:05:18.744Z,95.26
2022-10-23T06:06:18.752Z,95.26
2022-10-23T06:07:18.724Z,95.17
2022-10-23T06:08:18.713Z,95.17
2022-10-23T06:09:18.693Z,95.37
2022-10-23T06:10:18.682Z,95.37
2022-10-23T06:11:18.683Z,95.26
2022-10-23T06:12:18.654Z,95.26
2022-10-23T06:13:18.634Z,95.26
2022-10-23T06:14:18.632Z,95.17
2022-10-23T06:15:18.613Z,95.06
2022-10-23T06:16:18.624Z,95.17
2022-10-23T06:17:18.594Z,95.17
2022-10-23T06:18:18.576Z,94.96
2022-10-23T06:19:18.567Z,94.96
2022-10-23T06:20:18.555Z,94.96
2022-10-23T06:21:18.554Z,95.06
2022-10-23T06:23:18.507Z,95.06
2022-10-23T06:24:18.486Z,94.96
2022-10-23T06:25:18.486Z,94.96
2022-10-23T06:26:18.475Z,94.96
2022-10-23T06:27:18.457Z,94.96
2022-10-23T06:28:20.601Z,94.96
2022-10-23T06:29:18.439Z,94.96
2022-10-23T06:30:18.406Z,94.96
2022-10-23T06:31:18.426Z,94.92
2022-10-23T06:32:18.387Z,94.92
2022-10-23T06:33:18.379Z,94.92
2022-10-23T06:34:18.356Z,94.96
2022-10-23T06:35:18.362Z,94.92
2022-10-23T06:36:18.358Z,94.71
2022-10-23T06:37:18.372Z,94.76
2022-10-23T06:38:18.324Z,94.82
2022-10-23T06:39:18.290Z,94.82
2022-10-23T06:40:18.278Z,94.82
2022-10-23T06:41:18.306Z,94.71
2022-10-23T06:42:18.254Z,94.71
2022-10-23T06:43:18.239Z,94.86
2022-10-23T06:44:18.408Z,94.71
2022-10-23T06:45:18.219Z,94.71
2022-10-23T06:46:18.210Z,94.82
2022-10-23T06:48:18.169Z,94.71
2022-10-23T06:49:18.169Z,94.71
2022-10-23T06:50:18.141Z,94.71
2022-10-23T06:51:18.152Z,94.51
2022-10-23T06:52:41.617Z,94.51
2022-10-23T06:53:19.110Z,94.51
2022-10-23T06:54:18.101Z,94.51
2022-10-23T06:55:18.080Z,94.41
2022-10-23T06:56:18.091Z,94.41
2022-10-23T06:57:18.057Z,94.41
2022-10-23T06:58:18.042Z,94.31
2022-10-23T06:59:18.035Z,94.21
2022-10-23T07:00:18.023Z,94.10
2022-10-23T07:01:18.189Z,93.96
2022-10-23T07:02:17.982Z,93.86
2022-10-23T07:03:17.983Z,93.65
2022-10-23T07:04:17.961Z,93.65
2022-10-23T07:05:17.972Z,93.55
2022-10-23T07:06:17.932Z,93.45
2022-10-23T07:07:17.923Z,93.35
2022-10-23T07:08:17.912Z,93.25
2022-10-23T07:09:17.894Z,93.15
2022-10-23T07:10:17.878Z,93.05
2022-10-23T07:11:17.892Z,92.90
2022-10-23T07:12:17.853Z,92.80
2022-10-23T07:13:17.845Z,92.60
2022-10-23T07:14:17.826Z,92.49
2022-10-23T07:15:17.814Z,92.29
2022-10-23T07:16:17.817Z,92.29
2022-10-23T07:17:17.786Z,92.19
2022-10-23T07:18:17.778Z,92.19
2022-10-23T07:19:17.767Z,92.09
2022-10-23T07:20:17.745Z,91.99
2022-10-23T07:21:17.745Z,91.89
2022-10-23T07:22:17.715Z,91.78
2022-10-23T07:23:17.709Z,91.58
2022-10-23T07:24:17.694Z,91.68
2022-10-23T07:25:17.688Z,91.58
2022-10-23T07:26:17.680Z,91.58
2022-10-23T07:27:17.657Z,91.64
2022-10-23T07:28:17.636Z,91.54
2022-10-23T07:29:17.627Z,91.44
2022-10-23T07:30:17.609Z,91.24
2022-10-23T07:31:17.618Z,91.34
2022-10-23T07:32:17.587Z,91.13
2022-10-23T07:33:17.579Z,90.93
2022-10-23T07:34:17.558Z,90.93
2022-10-23T07:35:17.566Z,91.13
2022-10-23T07:36:17.549Z,91.03
2022-10-23T07:37:17.529Z,90.93
2022-10-23T07:38:17.507Z,90.73
2022-10-23T07:39:17.497Z,90.62
2022-10-23T07:40:17.481Z,90.38
2022-10-23T07:41:17.479Z,90.38
2022-10-23T07:42:17.449Z,90.18
2022-10-23T07:43:17.441Z,89.87
2022-10-23T07:44:17.431Z,89.77
2022-10-23T07:45:17.417Z,89.57
2022-10-23T07:46:17.410Z,89.26
2022-10-23T07:47:17.397Z,88.96
2022-10-23T07:48:17.370Z,89.02
2022-10-23T07:49:17.363Z,88.62
2022-10-23T07:50:17.350Z,88.62
2022-10-23T07:51:17.358Z,88.62
2022-10-23T07:52:17.322Z,88.31
2022-10-23T07:53:17.315Z,87.97
2022-10-23T07:54:17.301Z,87.56
2022-10-23T07:55:17.283Z,87.36
2022-10-23T07:56:17.281Z,87.16
2022-10-23T07:57:17.252Z,86.85
2022-10-23T07:58:17.243Z,86.71
2022-10-23T07:59:17.231Z,86.82
2022-10-23T08:00:17.231Z,86.91
2022-10-23T08:01:17.265Z,86.71
2022-10-23T08:02:17.207Z,86.37
2022-10-23T08:03:17.174Z,86.27
2022-10-23T08:04:17.162Z,85.86
2022-10-23T08:05:17.193Z,85.76
2022-10-23T08:06:17.144Z,85.46
2022-10-23T08:07:17.125Z,85.16
2022-10-23T08:08:17.113Z,85.16
2022-10-23T08:09:17.098Z,85.16
2022-10-23T08:10:17.083Z,85.02
2022-10-23T08:11:17.076Z,84.91
2022-10-23T08:12:17.055Z,85.02
2022-10-23T08:13:17.046Z,84.61
2022-10-23T08:14:17.028Z,84.20
2022-10-23T08:15:17.017Z,84.31
2022-10-23T08:16:17.019Z,84.51
2022-10-23T08:17:16.995Z,84.27
2022-10-23T08:18:16.977Z,83.96
2022-10-23T08:19:17.031Z,84.17
2022-10-23T08:20:16.945Z,83.86
2022-10-23T08:21:16.954Z,83.56
2022-10-23T08:22:16.920Z,83.66
2022-10-23T08:23:16.910Z,83.66
2022-10-23T08:24:16.890Z,83.26
2022-10-23T08:25:17.726Z,83.01
2022-10-23T08:26:16.883Z,82.71
2022-10-23T08:27:16.848Z,82.61
2022-10-23T08:28:16.842Z,82.41
2022-10-23T08:29:16.826Z,82.41
2022-10-23T08:30:16.808Z,82.57
2022-10-23T08:31:16.820Z,82.78
2022-10-23T08:32:16.789Z,82.17
2022-10-23T08:33:16.776Z,82.57
2022-10-23T08:34:16.749Z,82.17
2022-10-23T08:35:16.763Z,81.67
2022-10-23T08:36:16.835Z,81.05
2022-10-23T08:37:16.720Z,80.85
2022-10-23T08:38:16.707Z,80.55
2022-10-23T08:39:16.691Z,80.76
2022-10-23T08:40:16.672Z,80.35
2022-10-23T08:41:16.682Z,80.45
2022-10-23T08:42:16.658Z,80.55
2022-10-23T08:43:16.643Z,80.25
2022-10-23T08:44:16.631Z,80.45
2022-10-23T08:45:16.616Z,80.62
2022-10-23T08:46:16.612Z,80.51
2022-10-23T08:47:16.591Z,80.62
2022-10-23T08:48:16.574Z,80.41
2022-10-23T08:49:16.563Z,79.71
2022-10-23T08:50:16.613Z,80.07
2022-10-23T08:51:16.553Z,79.77
2022-10-23T08:52:16.521Z,79.27
2022-10-23T08:53:16.508Z,79.77
2022-10-23T08:54:16.495Z,79.87
2022-10-23T08:55:16.483Z,78.96
2022-10-23T08:56:16.485Z,78.46
2022-10-23T08:57:16.455Z,78.96
2022-10-23T08:58:16.435Z,79.57
2022-10-23T08:59:16.435Z,79.27
2022-10-23T09:00:16.418Z,79.06
2022-10-23T09:01:16.588Z,78.96
2022-10-23T09:02:16.449Z,79.13
2022-10-23T09:03:16.378Z,78.86
2022-10-23T09:04:16.370Z,79.33
2022-10-23T09:05:16.355Z,78.96
2022-10-23T09:06:16.356Z,79.43
2022-10-23T09:07:16.328Z,79.23
2022-10-23T09:08:16.318Z,79.33
2022-10-23T09:09:16.317Z,79.43
2022-10-23T09:10:16.291Z,79.23
2022-10-23T09:11:16.294Z,79.33
2022-10-23T09:12:16.258Z,79.13
2022-10-23T09:13:16.248Z,78.99
2022-10-23T09:14:16.240Z,78.59
2022-10-23T09:15:16.218Z,77.78
2022-10-23T09:16:16.223Z,77.88
2022-10-23T09:17:16.222Z,77.68
2022-10-23T09:18:16.178Z,77.58
2022-10-23T09:19:16.172Z,77.48
2022-10-23T09:20:16.151Z,77.38
2022-10-23T09:21:16.158Z,77.98
2022-10-23T09:22:16.119Z,78.19
2022-10-23T09:23:16.120Z,78.08
2022-10-23T09:24:16.101Z,78.59
2022-10-23T09:25:16.090Z,78.08
2022-10-23T09:26:16.091Z,77.17
2022-10-23T09:27:16.060Z,77.38
2022-10-23T09:28:16.051Z,77.17
2022-10-23T09:29:16.031Z,77.17
2022-10-23T09:30:16.011Z,77.17
2022-10-23T09:31:16.055Z,77.17
2022-10-23T09:32:16.004Z,76.77
2022-10-23T09:33:15.993Z,76.37
2022-10-23T09:34:15.990Z,77.14
2022-10-23T09:35:15.976Z,77.84
2022-10-23T09:36:15.945Z,77.64
2022-10-23T09:37:15.935Z,77.68
2022-10-23T09:38:15.925Z,77.38
2022-10-23T09:39:15.939Z,76.27
2022-10-23T09:40:15.906Z,76.67
2022-10-23T09:41:15.901Z,76.54
2022-10-23T09:42:15.855Z,76.34
2022-10-23T09:43:15.846Z,75.63
2022-10-23T09:44:15.833Z,75.63
2022-10-23T09:45:15.870Z,76.34
2022-10-23T09:46:15.806Z,76.84
2022-10-23T09:47:15.796Z,76.54
2022-10-23T09:48:15.820Z,75.53
2022-10-23T09:49:15.768Z,75.49
2022-10-23T09:50:15.796Z,75.73
2022-10-23T09:51:15.748Z,75.43
2022-10-23T09:52:15.718Z,75.29
2022-10-23T09:53:15.724Z,75.59
2022-10-23T09:54:15.689Z,75.79
2022-10-23T09:55:15.698Z,76.20
2022-10-23T09:56:15.665Z,75.39
2022-10-23T09:57:15.659Z,75.70
2022-10-23T09:58:15.695Z,75.90
2022-10-23T09:59:15.629Z,76.06
2022-10-23T10:00:15.641Z,76.06
2022-10-23T10:01:15.681Z,75.15
2022-10-23T10:02:15.646Z,74.85
2022-10-23T10:03:15.580Z,75.35
2022-10-23T10:04:15.563Z,75.26
2022-10-23T10:05:15.571Z,75.35
2022-10-23T10:06:15.531Z,74.65
2022-10-23T10:07:15.529Z,75.05
2022-10-23T10:08:15.501Z,75.66
2022-10-23T10:09:15.504Z,75.15
2022-10-23T10:10:15.492Z,75.66
2022-10-23T10:11:15.472Z,75.86
2022-10-23T10:12:15.453Z,75.56
2022-10-23T10:13:15.442Z,75.76
2022-10-23T10:14:15.421Z,75.46
2022-10-23T10:15:15.432Z,74.95
2022-10-23T10:16:15.404Z,75.05
2022-10-23T10:17:15.384Z,75.46
2022-10-23T10:18:15.375Z,75.15
2022-10-23T10:19:15.361Z,75.35
2022-10-23T10:20:15.364Z,75.56
2022-10-23T10:21:15.346Z,76.06
2022-10-23T10:22:15.325Z,75.46
2022-10-23T10:23:15.313Z,75.66
2022-10-23T10:24:15.296Z,75.15
2022-10-23T10:25:15.304Z,74.95
2022-10-23T10:26:15.277Z,74.95
2022-10-23T10:27:15.257Z,74.95
2022-10-23T10:28:15.239Z,75.86
2022-10-23T10:29:15.235Z,75.26
2022-10-23T10:30:15.238Z,75.02
2022-10-23T10:31:15.207Z,74.52
2022-10-23T10:32:15.198Z,74.32
2022-10-23T10:33:15.168Z,74.92
2022-10-23T10:34:15.179Z,74.32
2022-10-23T10:35:15.166Z,74.92
2022-10-23T10:36:15.185Z,74.92
2022-10-23T10:37:15.120Z,74.32
2022-10-23T10:38:15.109Z,74.32
2022-10-23T10:39:15.102Z,74.32
2022-10-23T10:40:15.158Z,74.52
2022-10-23T10:41:15.076Z,74.52
2022-10-23T10:42:15.059Z,74.32
2022-10-23T10:43:15.034Z,74.72
2022-10-23T10:44:15.030Z,74.62
2022-10-23T10:45:15.029Z,74.62
2022-10-23T10:47:17.240Z,73.91
2022-10-23T10:48:15.983Z,74.62
2022-10-23T10:49:14.961Z,74.41
2022-10-23T10:50:15.056Z,74.92
2022-10-23T10:51:14.931Z,74.88
2022-10-23T10:52:14.934Z,74.58
2022-10-23T10:53:14.912Z,74.78
2022-10-23T10:54:14.902Z,74.68
2022-10-23T10:55:14.904Z,74.41
2022-10-23T10:56:14.878Z,74.32
2022-10-23T10:57:14.868Z,74.32
2022-10-23T10:58:14.846Z,74.01
2022-10-23T10:59:14.834Z,74.01
2022-10-23T11:00:14.929Z,74.41
2022-10-23T11:01:14.916Z,74.82
2022-10-23T11:02:14.991Z,74.41
2022-10-23T11:03:14.778Z,74.11
2022-10-23T11:04:14.777Z,74.21
2022-10-23T11:05:14.765Z,74.01
2022-10-23T11:06:14.737Z,73.91
2022-10-23T11:07:14.726Z,74.32
2022-10-23T11:08:14.709Z,74.82
2022-10-23T11:09:20.257Z,74.82
2022-10-23T11:10:15.727Z,74.92
2022-10-23T11:11:14.672Z,75.02
2022-10-23T11:12:14.683Z,74.62
2022-10-23T11:13:14.638Z,74.05
2022-10-23T11:14:14.660Z,74.35
2022-10-23T11:15:14.635Z,74.55
2022-10-23T11:17:24.422Z,74.32
2022-10-23T11:18:24.396Z,74.21
2022-10-23T11:19:24.376Z,74.82
2022-10-23T11:20:24.385Z,75.12
2022-10-23T11:21:24.347Z,75.42
2022-10-23T11:22:24.346Z,75.52
2022-10-23T11:23:24.326Z,75.32
2022-10-23T11:24:24.339Z,75.42
2022-10-23T11:25:24.301Z,74.82
2022-10-23T11:26:24.300Z,74.52
2022-10-23T11:27:24.269Z,74.62
2022-10-23T11:28:24.259Z,74.52
2022-10-23T11:29:24.249Z,74.72
2022-10-23T11:30:24.253Z,74.72
2022-10-23T11:31:24.209Z,74.52
2022-10-23T11:32:24.263Z,74.92
2022-10-23T11:33:24.194Z,74.82
2022-10-23T11:34:24.186Z,74.92
2022-10-23T11:35:24.174Z,75.12
2022-10-23T11:36:24.151Z,75.22
2022-10-23T11:37:24.131Z,74.92
2022-10-23T11:38:24.120Z,74.92
2022-10-23T11:39:24.121Z,74.52
2022-10-23T11:40:24.126Z,74.62
2022-10-23T11:41:26.679Z,74.72
2022-10-23T11:42:24.070Z,74.92
2022-10-23T11:43:24.054Z,74.41
2022-10-23T11:44:24.062Z,75.42
2022-10-23T11:45:24.038Z,74.15
2022-10-23T11:46:24.013Z,74.62
2022-10-23T11:47:24.000Z,74.41
2022-10-23T11:48:23.993Z,73.91
2022-10-23T11:49:23.974Z,74.38
2022-10-23T11:50:23.981Z,73.27
2022-10-23T11:51:23.943Z,73.18
2022-10-23T11:52:23.944Z,73.54
2022-10-23T11:53:23.936Z,72.84
2022-10-23T11:54:23.903Z,73.14
2022-10-23T11:55:23.914Z,72.13
2022-10-23T11:56:23.882Z,72.74
2022-10-23T11:57:23.883Z,72.03
2022-10-23T11:58:23.865Z,71.83
2022-10-23T11:59:23.836Z,71.90
2022-10-23T12:00:23.856Z,71.30
2022-10-23T12:01:23.882Z,72.10
2022-10-23T12:02:23.853Z,72.06
2022-10-23T12:03:23.786Z,71.33
2022-10-23T12:04:23.785Z,69.92
2022-10-23T12:05:23.787Z,70.83
2022-10-23T12:06:23.748Z,70.43
2022-10-23T12:07:23.737Z,69.82
2022-10-23T12:08:23.728Z,70.50
2022-10-23T12:09:23.709Z,70.53
2022-10-23T12:10:23.724Z,70.53
2022-10-23T12:11:26.820Z,70.23
2022-10-23T12:12:23.669Z,69.62
2022-10-23T12:13:23.650Z,70.43
2022-10-23T12:14:23.641Z,69.82
2022-10-23T12:15:23.659Z,69.69
2022-10-23T12:16:23.623Z,69.99
2022-10-23T12:17:23.600Z,70.29
2022-10-23T12:18:23.592Z,70.19
2022-10-23T12:19:23.571Z,70.03
2022-10-23T12:20:23.583Z,69.73
2022-10-23T12:21:23.552Z,70.83
2022-10-23T12:22:23.570Z,70.43
2022-10-23T12:23:23.525Z,70.03
2022-10-23T12:24:23.521Z,70.23
2022-10-23T12:25:23.503Z,69.82
2022-10-23T12:26:23.483Z,70.56
2022-10-23T12:27:23.475Z,71.47
2022-10-23T12:28:23.463Z,71.26
2022-10-23T12:29:23.474Z,70.56
2022-10-23T12:30:23.435Z,70.56
2022-10-23T12:31:23.415Z,70.56
2022-10-23T12:32:23.415Z,71.36
2022-10-23T12:33:23.395Z,71.16
2022-10-23T12:34:23.392Z,71.26
2022-10-23T12:35:23.384Z,71.36
2022-10-23T12:36:23.365Z,71.16
2022-10-23T12:37:23.347Z,71.56
2022-10-23T12:38:23.326Z,71.47
2022-10-23T12:39:23.320Z,71.97
2022-10-23T12:40:23.317Z,71.86
2022-10-23T12:41:23.288Z,71.53
2022-10-23T12:42:23.277Z,70.96
2022-10-23T12:43:23.268Z,70.96
2022-10-23T12:44:23.249Z,71.56
2022-10-23T12:45:23.259Z,71.56
2022-10-23T12:46:23.219Z,71.97
2022-10-23T12:47:23.209Z,72.17
2022-10-23T12:48:23.202Z,71.66
2022-10-23T12:49:23.198Z,71.77
2022-10-23T12:50:23.189Z,71.70
2022-10-23T12:51:23.160Z,72.00
2022-10-23T12:52:23.142Z,72.50
2022-10-23T12:53:23.131Z,72.40
2022-10-23T12:54:23.110Z,72.10
2022-10-23T12:55:23.121Z,72.60
2022-10-23T12:56:23.091Z,73.00
2022-10-23T12:57:23.094Z,72.50
2022-10-23T12:58:23.064Z,72.60
2022-10-23T12:59:23.064Z,73.21
2022-10-23T13:00:23.083Z,73.21